Time;durP1;ratioP1;P1;durP2;ratioP2;P2;SDS_P1;SDS_P2;PMS_P1;PMS_P2;Temp;Humidity;BMP_temperature;BMP_pressure;BME280_temperature;BME280_humidity;BME280_pressure;Samples;Min_cycle;Max_cycle;Signal;HPM_P1;HPM_P2
2023/06/09 00:01:26;;;;;;;16.10;12.40;;;;;;;18.19;100.00;100379.38;8359047;28;20148;-64
2023/06/09 00:05:32;;;;;;;16.10;11.85;;;;;;;18.31;100.00;100372.34;8359410;28;20041;-63
2023/06/09 00:09:32;;;;;;;16.67;12.02;;;;;;;18.32;100.00;100385.00;8358846;28;20052;-64
2023/06/09 00:13:32;;;;;;;16.73;12.35;;;;;;;18.21;100.00;100376.44;8357557;28;20051;-64
2023/06/09 00:17:34;;;;;;;16.10;12.18;;;;;;;18.15;100.00;100360.78;8358163;28;20075;-63
2023/06/09 00:21:37;;;;;;;16.83;12.43;;;;;;;18.10;100.00;100358.63;8358072;28;20091;-63
2023/06/09 00:25:37;;;;;;;17.30;12.90;;;;;;;18.10;100.00;100346.84;8358612;28;20033;-64
2023/06/09 00:29:38;;;;;;;15.82;12.57;;;;;;;18.03;100.00;100357.72;8358200;28;20037;-63
2023/06/09 00:33:38;;;;;;;17.58;12.43;;;;;;;17.97;100.00;100350.28;8357971;28;20041;-63
2023/06/09 00:37:39;;;;;;;16.90;11.73;;;;;;;17.93;100.00;100348.94;8357469;28;20051;-63
2023/06/09 00:41:39;;;;;;;15.65;12.02;;;;;;;17.63;100.00;100349.19;8358020;28;20052;-63
2023/06/09 00:45:40;;;;;;;17.08;13.10;;;;;;;17.68;100.00;100335.81;8357628;28;20399;-63
2023/06/09 00:49:43;;;;;;;16.83;13.77;;;;;;;17.72;100.00;100345.31;8357481;28;20072;-63
2023/06/09 00:53:43;;;;;;;18.02;13.32;;;;;;;17.70;100.00;100337.31;8357148;28;20067;-63
2023/06/09 00:57:44;;;;;;;15.65;12.57;;;;;;;17.59;100.00;100340.50;8357219;28;20483;-64
2023/06/09 01:01:45;;;;;;;17.10;12.82;;;;;;;17.82;100.00;100337.66;8357373;28;20067;-64
2023/06/09 01:05:49;;;;;;;17.65;12.50;;;;;;;17.78;100.00;100331.72;8357339;28;20041;-63
2023/06/09 01:10:00;;;;;;;16.85;13.48;;;;;;;17.57;100.00;100335.22;8357031;28;20029;-63
2023/06/09 01:14:24;;;;;;;21.25;12.52;;;;;;;17.49;100.00;100338.09;8357047;28;20518;-63
2023/06/09 01:18:26;;;;;;;22.05;13.35;;;;;;;17.20;100.00;100345.41;8356301;28;20071;-63
2023/06/09 01:22:50;;;;;;;20.05;13.85;;;;;;;16.92;100.00;100355.22;8355097;28;20033;-63
2023/06/09 01:26:55;;;;;;;19.55;13.65;;;;;;;16.77;100.00;100357.09;8356669;28;20530;-63
2023/06/09 01:30:57;;;;;;;22.00;14.52;;;;;;;16.54;100.00;100354.38;8356387;28;20090;-64
2023/06/09 01:34:58;;;;;;;21.30;15.02;;;;;;;16.66;100.00;100358.38;8355921;28;20448;-63
2023/06/09 01:39:00;;;;;;;26.42;16.55;;;;;;;16.83;100.00;100361.78;8350977;28;20566;-63
2023/06/09 01:43:03;;;;;;;22.27;16.48;;;;;;;16.92;100.00;100366.16;8321952;28;20514;-64
2023/06/09 01:47:05;;;;;;;24.08;16.42;;;;;;;16.93;100.00;100373.31;8323435;28;20033;-64
2023/06/09 01:51:15;;;;;;;21.27;15.82;;;;;;;16.91;100.00;100364.47;8322968;28;20045;-64
2023/06/09 01:55:23;;;;;;;22.98;15.68;;;;;;;17.00;100.00;100358.75;8322945;28;20053;-64
2023/06/09 01:59:28;;;;;;;30.40;18.02;;;;;;;17.06;100.00;100357.16;8322540;28;20111;-63
2023/06/09 02:03:31;;;;;;;25.27;16.67;;;;;;;17.03;100.00;100344.72;8322005;28;20045;-63
2023/06/09 02:07:33;;;;;;;27.73;18.27;;;;;;;16.90;100.00;100357.31;8321046;28;20100;-64
2023/06/09 02:11:34;;;;;;;31.95;17.48;;;;;;;16.81;100.00;100347.50;8321940;28;20484;-64
2023/06/09 02:15:35;;;;;;;38.83;18.25;;;;;;;16.60;100.00;100352.78;8322179;28;20412;-64
2023/06/09 02:19:38;;;;;;;28.90;18.08;;;;;;;16.48;100.00;100352.38;8322548;28;20370;-64
2023/06/09 02:23:39;;;;;;;32.42;19.60;;;;;;;16.40;100.00;100349.66;8322349;28;20577;-64
2023/06/09 02:27:40;;;;;;;38.90;19.83;;;;;;;16.26;100.00;100346.88;8322230;28;20419;-64
2023/06/09 02:31:40;;;;;;;37.95;19.83;;;;;;;16.33;100.00;100342.38;8322608;28;20037;-64
2023/06/09 02:35:41;;;;;;;35.67;20.00;;;;;;;16.33;100.00;100347.84;8322270;28;20053;-63
2023/06/09 02:39:42;;;;;;;39.78;23.02;;;;;;;16.43;100.00;100348.44;8322137;28;20182;-64
2023/06/09 02:43:42;;;;;;;35.38;24.63;;;;;;;16.32;100.00;100346.16;8322883;28;20065;-67
2023/06/09 02:47:43;;;;;;;46.17;24.20;;;;;;;16.30;100.00;100342.75;8334274;28;20044;-64
2023/06/09 02:51:43;;;;;;;37.50;24.80;;;;;;;16.25;100.00;100350.66;8328473;28;20034;-60
2023/06/09 02:55:46;;;;;;;44.90;20.90;;;;;;;16.07;100.00;100355.53;8328845;28;20175;-60
2023/06/09 02:59:53;;;;;;;30.67;19.08;;;;;;;15.79;100.00;100354.34;8361098;28;20053;-63
2023/06/09 03:03:55;;;;;;;38.63;22.00;;;;;;;15.80;100.00;100356.88;8361216;28;20572;-64
2023/06/09 03:07:56;;;;;;;31.95;21.33;;;;;;;15.98;100.00;100357.44;8361164;28;20446;-64
2023/06/09 03:11:57;;;;;;;39.80;21.38;;;;;;;15.98;100.00;100365.63;8329243;28;20045;-64
2023/06/09 03:15:59;;;;;;;34.47;18.70;;;;;;;15.73;100.00;100367.63;8328006;28;20128;-63
2023/06/09 03:20:01;;;;;;;35.65;23.27;;;;;;;15.64;100.00;100374.16;8327777;28;20039;-63
2023/06/09 03:24:05;;;;;;;48.30;22.67;;;;;;;15.84;100.00;100373.72;8327563;28;20137;-64
2023/06/09 03:28:07;;;;;;;35.28;22.38;;;;;;;15.89;100.00;100382.22;8327641;28;20041;-64
2023/06/09 03:32:10;;;;;;;34.53;20.90;;;;;;;15.85;100.00;100379.00;8327439;28;20029;-63
2023/06/09 03:36:10;;;;;;;33.13;20.55;;;;;;;15.84;100.00;100373.72;8327028;28;20075;-63
2023/06/09 03:40:12;;;;;;;33.25;20.95;;;;;;;15.85;100.00;100370.81;8327099;28;20128;-63
2023/06/09 03:44:13;;;;;;;28.65;19.33;;;;;;;15.80;100.00;100367.78;8326858;28;20466;-64
2023/06/09 03:48:16;;;;;;;38.40;18.70;;;;;;;15.87;100.00;100373.38;8326765;28;20044;-64
2023/06/09 03:52:19;;;;;;;30.77;18.25;;;;;;;15.81;100.00;100377.66;8339192;28;20032;-64
2023/06/09 03:56:20;;;;;;;35.22;19.17;;;;;;;15.69;100.00;100388.09;8359629;28;20415;-64
2023/06/09 04:00:21;;;;;;;40.60;20.88;;;;;;;15.69;100.00;100379.94;8353517;28;20060;-64
2023/06/09 04:04:34;;;;;;;35.15;22.13;;;;;;;15.89;100.00;100374.88;8389814;27;20402;-59
2023/06/09 04:08:34;;;;;;;32.45;21.52;;;;;;;16.10;100.00;100377.81;8391330;28;20044;-59
2023/06/09 04:12:36;;;;;;;30.80;20.40;;;;;;;16.18;100.00;100376.94;8386324;28;20029;-59
2023/06/09 04:16:36;;;;;;;34.70;19.83;;;;;;;16.25;100.00;100377.94;8382909;28;20098;-59
2023/06/09 04:20:38;;;;;;;27.00;19.10;;;;;;;16.40;100.00;100371.50;8384617;28;20241;-58
2023/06/09 04:24:39;;;;;;;28.67;19.10;;;;;;;16.52;100.00;100380.13;8384476;28;20120;-59
2023/06/09 04:28:40;;;;;;;27.40;19.10;;;;;;;16.64;100.00;100379.53;8405435;28;20515;-60
2023/06/09 04:32:41;;;;;;;33.05;18.90;;;;;;;16.74;100.00;100379.31;8380059;28;20949;-58
2023/06/09 04:36:44;;;;;;;25.40;17.70;;;;;;;16.77;100.00;100384.41;8381704;28;20064;-58
2023/06/09 04:40:46;;;;;;;30.70;18.70;;;;;;;16.95;100.00;100382.16;8397706;28;20039;-59
2023/06/09 04:44:49;;;;;;;29.10;18.83;;;;;;;17.18;100.00;100378.38;8382960;28;20572;-58
2023/06/09 04:48:51;;;;;;;26.05;18.13;;;;;;;17.33;100.00;100378.38;8382805;28;20610;-59
2023/06/09 04:52:52;;;;;;;30.88;18.33;;;;;;;17.49;100.00;100391.91;8382872;28;20123;-62
2023/06/09 04:56:52;;;;;;;27.10;17.90;;;;;;;17.63;100.00;100389.16;8387228;28;20049;-62
2023/06/09 05:00:57;;;;;;;23.45;15.98;;;;;;;17.76;98.93;100391.25;8416283;27;20040;-62
2023/06/09 05:04:58;;;;;;;25.35;16.67;;;;;;;17.47;100.00;100393.97;8449112;27;20040;-62
2023/06/09 05:08:58;;;;;;;27.60;15.48;;;;;;;17.74;99.31;100406.97;8406528;27;20609;-62
2023/06/09 05:12:59;;;;;;;22.95;16.25;;;;;;;17.81;100.00;100405.19;8397070;28;20048;-62
2023/06/09 05:17:02;;;;;;;26.25;16.10;;;;;;;17.96;98.58;100408.75;8389386;28;20529;-62
2023/06/09 05:21:03;;;;;;;21.83;14.82;;;;;;;18.28;96.16;100411.06;8410893;28;20509;-62
2023/06/09 05:25:08;;;;;;;17.92;14.57;;;;;;;18.33;95.92;100419.53;8358467;27;20037;-62
2023/06/09 05:29:08;;;;;;;27.30;15.77;;;;;;;18.63;94.94;100404.72;8342970;28;20041;-62
2023/06/09 05:33:09;;;;;;;18.30;15.07;;;;;;;19.09;95.43;100411.50;8409390;28;20126;-62
2023/06/09 05:37:12;;;;;;;21.73;14.77;;;;;;;19.05;93.15;100417.56;8422732;28;20131;-59
2023/06/09 05:41:14;;;;;;;22.63;15.27;;;;;;;19.39;93.44;100426.75;8395566;28;20047;-59
2023/06/09 05:45:15;;;;;;;20.30;14.38;;;;;;;19.56;92.78;100426.44;8390291;28;20494;-58
2023/06/09 05:49:16;;;;;;;19.50;15.02;;;;;;;19.65;92.15;100427.97;8390017;28;20471;-59
2023/06/09 05:53:17;;;;;;;19.67;13.80;;;;;;;19.84;91.29;100417.13;8389357;28;20491;-59
2023/06/09 05:57:19;;;;;;;16.98;13.35;;;;;;;20.13;90.00;100424.28;8407492;28;20040;-59
2023/06/09 06:01:19;;;;;;;18.45;13.82;;;;;;;20.23;88.73;100422.00;8422782;28;20040;-59
2023/06/09 06:05:20;;;;;;;16.85;12.35;;;;;;;20.17;86.66;100420.94;8423613;28;20148;-59
2023/06/09 06:09:21;;;;;;;16.13;12.95;;;;;;;20.08;88.04;100421.25;8418584;28;20547;-59
2023/06/09 06:13:21;;;;;;;13.40;12.00;;;;;;;20.67;86.75;100425.94;8396214;28;20395;-61
2023/06/09 06:17:24;;;;;;;14.93;11.65;;;;;;;20.75;87.32;100423.00;8388020;28;20099;-60
2023/06/09 06:21:24;;;;;;;17.60;13.10;;;;;;;20.83;86.40;100430.22;8380519;28;20058;-59
2023/06/09 06:25:25;;;;;;;16.98;12.90;;;;;;;20.78;87.06;100427.22;8355238;28;20037;-63
2023/06/09 06:29:25;;;;;;;19.13;14.05;;;;;;;21.40;86.29;100430.47;8355321;28;20032;-62
2023/06/09 06:33:27;;;;;;;17.10;12.43;;;;;;;21.30;85.24;100419.91;8356036;28;20041;-63
2023/06/09 06:37:28;;;;;;;14.82;12.32;;;;;;;21.37;84.89;100421.81;8354496;28;20064;-62
2023/06/09 06:41:28;;;;;;;18.10;12.65;;;;;;;21.61;83.74;100419.25;8355433;28;20507;-64
2023/06/09 06:45:29;;;;;;;15.45;12.43;;;;;;;21.83;83.20;100423.47;8356100;28;20613;-62
2023/06/09 06:49:29;;;;;;;15.65;12.90;;;;;;;22.19;84.07;100414.66;8355595;28;20532;-62
2023/06/09 06:53:30;;;;;;;12.70;11.48;;;;;;;22.20;80.57;100414.44;8355401;28;20396;-62
2023/06/09 06:57:30;;;;;;;16.40;11.80;;;;;;;22.54;79.29;100416.03;8354990;28;20124;-63
2023/06/09 07:01:32;;;;;;;13.13;11.30;;;;;;;22.48;79.75;100412.19;8352247;28;20400;-63
2023/06/09 07:05:32;;;;;;;13.35;11.65;;;;;;;22.45;79.72;100417.31;8355413;28;20037;-63
2023/06/09 07:09:33;;;;;;;15.02;10.68;;;;;;;22.78;78.73;100416.06;8339436;28;20068;-63
2023/06/09 07:13:33;;;;;;;13.25;11.00;;;;;;;23.10;79.38;100417.75;8348411;28;20074;-63
2023/06/09 07:17:34;;;;;;;11.45;10.25;;;;;;;23.04;75.83;100407.63;8395658;28;20036;-63
2023/06/09 07:21:36;;;;;;;12.10;9.88;;;;;;;23.61;75.54;100412.03;8390751;28;20067;-63
2023/06/09 07:25:36;;;;;;;12.30;9.73;;;;;;;23.79;74.89;100411.22;8354947;28;20435;-63
2023/06/09 07:29:36;;;;;;;11.07;8.73;;;;;;;24.41;74.75;100405.38;8351238;28;20037;-63
2023/06/09 07:33:37;;;;;;;10.90;9.80;;;;;;;24.39;77.45;100413.06;8390073;28;20773;-63
2023/06/09 07:37:39;;;;;;;5.35;4.85;;;;;;;24.50;65.98;100410.38;8419243;28;20282;-63
2023/06/09 07:41:40;;;;;;;8.27;5.30;;;;;;;24.25;65.67;100411.56;8390838;28;20040;-62
2023/06/09 07:45:40;;;;;;;6.50;5.20;;;;;;;24.60;66.00;100409.78;8386542;28;20044;-62
2023/06/09 07:49:40;;;;;;;5.90;5.30;;;;;;;24.85;65.38;100413.28;8387049;28;20060;-59
2023/06/09 07:53:41;;;;;;;5.95;5.30;;;;;;;24.96;63.83;100404.19;8365963;28;20098;-59
2023/06/09 07:57:42;;;;;;;6.97;4.50;;;;;;;24.98;63.57;100413.09;8382210;28;20044;-59
2023/06/09 08:01:43;;;;;;;5.63;5.13;;;;;;;25.44;63.85;100416.00;8374133;28;20436;-59
2023/06/09 08:05:44;;;;;;;6.20;5.30;;;;;;;25.70;62.14;100404.41;8387403;28;20044;-63
2023/06/09 08:09:44;;;;;;;5.82;4.93;;;;;;;25.44;61.30;100410.44;8396842;28;20036;-62
2023/06/09 08:13:45;;;;;;;10.85;5.25;;;;;;;25.57;62.78;100410.22;8420014;28;20043;-63
2023/06/09 08:17:45;;;;;;;9.10;5.77;;;;;;;25.73;61.21;100411.41;8419862;28;20511;-63
2023/06/09 08:21:45;;;;;;;7.05;5.35;;;;;;;25.43;60.82;100403.22;8408750;28;20377;-64
2023/06/09 08:25:47;;;;;;;6.53;5.20;;;;;;;25.70;61.87;100407.19;8386991;28;20056;-62
2023/06/09 08:29:48;;;;;;;4.95;4.30;;;;;;;25.93;60.18;100393.34;8386487;28;20518;-63
2023/06/09 08:33:50;;;;;;;7.50;5.22;;;;;;;25.82;60.18;100393.31;8379268;28;20098;-59
2023/06/09 08:37:51;;;;;;;6.93;5.32;;;;;;;25.75;59.95;100387.94;8372645;28;20127;-59
2023/06/09 08:41:54;;;;;;;8.07;5.57;;;;;;;26.05;61.66;100388.66;8410589;28;20063;-60
2023/06/09 08:45:56;;;;;;;6.97;4.65;;;;;;;26.36;60.85;100387.34;8386326;28;20036;-60
2023/06/09 08:49:57;;;;;;;5.30;4.68;;;;;;;26.56;59.24;100385.00;8389833;28;20433;-59
2023/06/09 08:53:59;;;;;;;7.70;5.70;;;;;;;26.64;61.22;100379.06;8363194;28;20507;-59
2023/06/09 08:58:00;;;;;;;5.38;4.88;;;;;;;26.86;60.51;100380.03;8359138;28;20099;-59
2023/06/09 09:02:02;;;;;;;5.30;4.78;;;;;;;26.78;60.40;100374.91;8359040;28;20055;-58
2023/06/09 09:06:02;;;;;;;6.47;5.05;;;;;;;26.74;59.06;100376.47;8359440;28;20037;-59
2023/06/09 09:10:03;;;;;;;6.65;4.85;;;;;;;26.88;60.50;100377.00;8389211;28;20116;-59
2023/06/09 09:14:12;;;;;;;9.07;4.70;;;;;;;27.05;58.49;100383.44;8419825;28;20044;-59
2023/06/09 09:18:13;;;;;;;5.30;4.78;;;;;;;27.04;57.58;100378.97;8391024;28;20047;-59
2023/06/09 09:22:14;;;;;;;6.18;5.10;;;;;;;27.22;60.35;100378.72;8376604;28;20067;-59
2023/06/09 09:26:25;;;;;;;7.70;4.78;;;;;;;27.51;59.85;100366.47;8359029;28;20033;-59
2023/06/09 09:30:48;;;;;;;5.85;4.82;;;;;;;27.55;58.79;100373.19;8330397;28;20514;-59
2023/06/09 09:34:49;;;;;;;5.35;4.85;;;;;;;27.46;58.15;100374.69;8341458;28;20046;-58
2023/06/09 09:38:50;;;;;;;6.22;4.47;;;;;;;27.48;58.33;100366.97;8348837;28;20048;-59
2023/06/09 09:42:51;;;;;;;7.53;4.70;;;;;;;27.62;58.08;100368.28;8386417;28;20045;-59
2023/06/09 09:46:51;;;;;;;6.85;4.57;;;;;;;27.71;56.61;100366.75;8356970;28;20515;-60
2023/06/09 09:50:55;;;;;;;8.02;4.97;;;;;;;27.56;57.30;100358.19;8357538;28;20051;-60
2023/06/09 09:54:59;;;;;;;6.25;5.00;;;;;;;27.66;57.92;100352.78;8357601;28;20045;-59
2023/06/09 09:59:02;;;;;;;6.45;5.38;;;;;;;28.60;55.82;100360.72;8341183;28;20081;-59
2023/06/09 10:03:07;;;;;;;5.90;5.10;;;;;;;29.79;53.71;100362.09;8355859;28;20049;-61
2023/06/09 10:07:10;;;;;;;9.88;4.85;;;;;;;30.99;52.84;100364.53;8359486;28;20061;-59
2023/06/09 10:11:12;;;;;;;6.65;5.10;;;;;;;31.83;50.37;100357.25;8419518;28;20379;-59
2023/06/09 10:15:13;;;;;;;6.53;4.32;;;;;;;32.58;48.00;100344.94;8423204;28;20067;-59
2023/06/09 10:19:16;;;;;;;5.63;4.25;;;;;;;32.80;47.48;100349.00;8407270;28;20047;-62
2023/06/09 10:23:18;;;;;;;8.93;4.93;;;;;;;32.75;46.19;100357.41;8388900;28;20048;-62
2023/06/09 10:27:20;;;;;;;6.28;4.25;;;;;;;33.14;45.49;100349.88;8389086;28;20263;-62
2023/06/09 10:31:23;;;;;;;6.70;3.83;;;;;;;33.60;46.66;100347.56;8388934;28;20087;-60
2023/06/09 10:35:27;;;;;;;4.28;3.88;;;;;;;33.60;45.05;100345.56;8388675;28;20071;-58
2023/06/09 10:39:46;;;;;;;5.20;3.85;;;;;;;33.39;46.03;100338.47;8388529;28;20119;-59
2023/06/09 10:44:01;;;;;;;4.20;3.80;;;;;;;33.35;46.04;100331.75;8388474;28;20060;-59
2023/06/09 10:48:02;;;;;;;5.50;3.70;;;;;;;33.94;44.37;100325.88;8388014;28;20469;-58
2023/06/09 10:52:04;;;;;;;5.55;4.32;;;;;;;34.16;44.57;100328.97;8388361;28;20067;-59
2023/06/09 10:56:32;;;;;;;4.97;3.50;;;;;;;34.13;44.91;100323.94;8359538;28;20056;-59
2023/06/09 11:01:07;;;;;;;5.57;3.92;;;;;;;34.20;44.46;100330.03;8354144;28;20401;-59
2023/06/09 11:05:09;;;;;;;3.80;3.45;;;;;;;34.39;43.78;100327.28;8322017;28;20045;-59
2023/06/09 11:09:12;;;;;;;5.88;4.18;;;;;;;34.88;42.89;100325.72;8336608;28;20041;-59
2023/06/09 11:13:37;;;;;;;4.40;3.63;;;;;;;35.26;41.46;100320.88;8387665;28;20048;-59
2023/06/09 11:17:40;;;;;;;6.00;3.80;;;;;;;34.29;44.11;100311.38;8355034;28;20029;-59
2023/06/09 11:22:02;;;;;;;6.10;3.90;;;;;;;34.40;43.11;100312.94;8389011;28;20071;-58
2023/06/09 11:26:20;;;;;;;3.20;2.90;;;;;;;34.85;41.28;100329.16;8353856;28;20045;-59
2023/06/09 11:30:22;;;;;;;3.00;2.70;;;;;;;34.39;41.04;100310.44;8357529;28;20036;-58
2023/06/09 11:34:55;;;;;;;4.47;3.20;;;;;;;34.87;40.55;100301.59;8354086;28;20032;-59
2023/06/09 11:39:03;;;;;;;5.85;3.53;;;;;;;34.93;40.09;100291.94;8347784;28;20409;-59
2023/06/09 11:43:08;;;;;;;7.03;4.13;;;;;;;35.03;40.80;100293.72;8377090;28;20048;-59
2023/06/09 11:47:29;;;;;;;4.82;3.00;;;;;;;35.24;40.45;100292.22;8353007;28;20131;-59
2023/06/09 11:51:53;;;;;;;4.80;2.97;;;;;;;35.66;38.97;100286.41;8366881;28;20044;-63
2023/06/09 11:56:00;;;;;;;5.63;3.10;;;;;;;35.24;39.71;100295.03;8359806;28;20045;-63
2023/06/09 12:00:12;;;;;;;10.65;3.30;;;;;;;34.30;39.12;100275.72;8349245;28;20140;-63
2023/06/09 12:04:25;;;;;;;5.95;3.15;;;;;;;34.86;40.04;100293.47;8349302;27;20476;-63
2023/06/09 12:08:25;;;;;;;6.47;3.33;;;;;;;34.29;39.82;100276.84;8343681;28;20053;-63
2023/06/09 12:12:26;;;;;;;3.53;3.22;;;;;;;32.70;42.45;100269.78;8347499;28;20061;-63
2023/06/09 12:16:26;;;;;;;5.13;3.10;;;;;;;31.74;43.86;100266.63;8345751;28;20437;-63
2023/06/09 12:20:35;;;;;;;7.13;3.17;;;;;;;30.78;44.27;100273.47;8336570;28;20357;-63
2023/06/09 12:24:36;;;;;;;2.97;2.72;;;;;;;30.60;44.99;100265.59;8343368;28;20073;-63
2023/06/09 12:28:38;;;;;;;6.93;3.30;;;;;;;30.31;46.67;100260.53;8345861;28;20037;-63
2023/06/09 12:32:38;;;;;;;5.68;3.53;;;;;;;30.28;46.36;100263.88;8339981;28;20055;-62
2023/06/09 12:36:39;;;;;;;5.20;3.63;;;;;;;30.37;44.91;100253.84;8340549;28;20033;-62
2023/06/09 12:40:46;;;;;;;6.82;3.63;;;;;;;30.58;46.60;100248.31;8359408;28;20265;-62
2023/06/09 12:44:48;;;;;;;4.28;3.47;;;;;;;30.55;44.54;100258.06;8328797;28;20048;-63
2023/06/09 12:48:57;;;;;;;6.80;3.45;;;;;;;30.33;45.38;100249.94;8340781;28;20033;-63
2023/06/09 12:52:57;;;;;;;10.05;3.65;;;;;;;30.35;44.46;100238.50;8301430;28;20057;-63
2023/06/09 12:56:58;;;;;;;4.22;3.83;;;;;;;30.71;46.32;100250.53;8331393;28;20071;-63
2023/06/09 13:00:58;;;;;;;4.70;3.10;;;;;;;30.61;45.68;100233.78;8328692;28;20046;-63
2023/06/09 13:04:59;;;;;;;4.28;3.85;;;;;;;30.70;45.39;100234.91;8313442;28;20515;-62
2023/06/09 13:09:00;;;;;;;3.65;3.22;;;;;;;30.68;43.99;100228.75;8317761;28;20045;-63
2023/06/09 13:13:01;;;;;;;4.72;3.53;;;;;;;30.68;43.82;100225.97;8321279;28;20041;-63
2023/06/09 13:17:01;;;;;;;5.97;3.45;;;;;;;30.72;44.42;100219.56;8300336;28;20044;-62
2023/06/09 13:21:02;;;;;;;6.07;3.75;;;;;;;30.48;45.09;100223.16;8295990;28;20041;-63
2023/06/09 13:25:02;;;;;;;4.25;3.53;;;;;;;30.74;44.88;100222.09;8322191;28;20069;-63
2023/06/09 13:29:03;;;;;;;4.65;3.10;;;;;;;30.50;44.71;100232.94;8322032;28;20033;-62
2023/06/09 13:33:05;;;;;;;3.67;3.38;;;;;;;30.56;44.92;100226.25;8323803;28;20499;-63
2023/06/09 13:37:05;;;;;;;3.60;3.30;;;;;;;30.49;45.73;100220.09;8322808;28;20038;-63
2023/06/09 13:41:06;;;;;;;3.85;3.30;;;;;;;30.64;45.29;100216.50;8323923;28;20072;-63
2023/06/09 13:45:07;;;;;;;5.35;4.00;;;;;;;30.88;45.51;100212.00;8323897;28;20068;-62
2023/06/09 13:49:07;;;;;;;3.40;3.10;;;;;;;30.84;43.56;100205.31;8307771;28;20419;-63
2023/06/09 13:53:07;;;;;;;3.47;3.17;;;;;;;30.39;42.94;100215.34;8304973;28;20574;-63
2023/06/09 13:57:08;;;;;;;4.78;3.42;;;;;;;30.61;42.72;100211.47;8300011;28;20946;-63
2023/06/09 14:01:08;;;;;;;3.83;2.85;;;;;;;30.75;42.01;100202.28;8312397;28;20747;-63
2023/06/09 14:05:12;;;;;;;4.43;3.22;;;;;;;30.73;43.23;100198.06;8311652;28;20048;-63
2023/06/09 14:09:12;;;;;;;7.32;3.17;;;;;;;30.63;43.29;100209.22;8298932;28;20042;-63
2023/06/09 14:13:13;;;;;;;3.38;3.08;;;;;;;30.68;42.16;100212.84;8320099;28;20060;-63
2023/06/09 14:17:13;;;;;;;4.72;3.40;;;;;;;30.63;43.10;100198.88;8291141;28;20034;-63
2023/06/09 14:21:14;;;;;;;2.90;2.70;;;;;;;30.80;43.13;100193.06;8296322;28;20045;-63
2023/06/09 14:25:18;;;;;;;6.65;3.25;;;;;;;30.71;42.20;100183.53;8321405;28;20057;-63
2023/06/09 14:29:18;;;;;;;4.93;3.60;;;;;;;30.67;41.74;100193.59;8322030;28;20037;-63
2023/06/09 14:33:19;;;;;;;7.03;3.80;;;;;;;30.49;43.33;100182.97;8320418;28;20037;-62
2023/06/09 14:37:19;;;;;;;6.65;3.83;;;;;;;30.73;44.52;100176.53;8315886;28;20284;-63
2023/06/09 14:41:20;;;;;;;8.73;3.77;;;;;;;30.70;43.39;100181.88;8317993;28;20416;-63
2023/06/09 14:45:22;;;;;;;7.40;3.87;;;;;;;30.81;43.81;100177.97;8296351;28;20666;-63
2023/06/09 14:49:23;;;;;;;4.55;3.45;;;;;;;30.75;43.79;100179.09;8329347;28;20288;-63
2023/06/09 14:53:23;;;;;;;7.43;3.72;;;;;;;30.77;45.72;100183.28;8306491;28;20120;-64
2023/06/09 14:57:23;;;;;;;7.57;3.65;;;;;;;30.52;43.28;100174.06;8287941;28;20033;-63
2023/06/09 15:01:24;;;;;;;8.60;4.40;;;;;;;30.24;44.04;100173.47;8288587;28;20516;-63
2023/06/09 15:05:27;;;;;;;7.22;4.55;;;;;;;30.23;45.55;100170.97;8328090;28;20042;-63
2023/06/09 15:09:27;;;;;;;6.80;4.05;;;;;;;30.16;45.98;100164.78;8309437;28;20041;-63
2023/06/09 15:13:28;;;;;;;6.40;3.92;;;;;;;30.42;44.77;100163.72;8315265;28;20065;-63
2023/06/09 15:17:28;;;;;;;4.75;4.25;;;;;;;30.78;44.72;100148.66;8311023;28;20329;-63
2023/06/09 15:21:29;;;;;;;4.33;3.93;;;;;;;30.89;45.84;100153.09;8318210;28;20759;-63
2023/06/09 15:25:33;;;;;;;6.78;4.30;;;;;;;30.34;45.30;100162.31;8316752;28;20387;-63
2023/06/09 15:29:33;;;;;;;6.40;4.38;;;;;;;29.86;46.94;100154.44;8319518;28;20034;-64
2023/06/09 15:33:34;;;;;;;5.33;4.40;;;;;;;29.56;47.74;100156.25;8300306;28;20487;-63
2023/06/09 15:37:35;;;;;;;7.03;4.13;;;;;;;29.35;47.96;100152.53;8309006;28;20292;-63
2023/06/09 15:41:35;;;;;;;5.28;3.88;;;;;;;29.18;47.83;100145.50;8320443;28;20042;-63
2023/06/09 15:45:37;;;;;;;9.60;4.50;;;;;;;29.07;48.03;100150.16;8320744;28;20041;-64
2023/06/09 15:49:38;;;;;;;5.47;4.97;;;;;;;29.20;48.15;100144.09;8320659;28;20041;-64
2023/06/09 15:53:38;;;;;;;6.13;4.35;;;;;;;29.44;47.58;100145.34;8320903;28;20053;-60
2023/06/09 15:57:39;;;;;;;7.25;4.47;;;;;;;29.68;47.65;100146.56;8313776;28;20514;-60
2023/06/09 16:01:39;;;;;;;7.55;5.00;;;;;;;29.86;46.81;100136.84;8288381;28;20049;-62
2023/06/09 16:05:41;;;;;;;6.70;4.78;;;;;;;29.89;47.37;100136.31;8287187;28;20120;-63
2023/06/09 16:09:41;;;;;;;5.70;4.72;;;;;;;29.74;47.56;100127.91;8323096;28;20072;-63
2023/06/09 16:13:42;;;;;;;7.55;4.72;;;;;;;29.75;48.47;100127.63;8318579;28;20045;-63
2023/06/09 16:17:42;;;;;;;6.82;4.97;;;;;;;29.80;46.11;100122.06;8319747;28;20041;-63
2023/06/09 16:21:43;;;;;;;5.47;4.43;;;;;;;29.83;46.35;100115.94;8334989;28;20037;-63
2023/06/09 16:25:43;;;;;;;8.93;4.60;;;;;;;30.01;44.97;100112.59;8312239;28;20543;-63
2023/06/09 16:29:46;;;;;;;6.80;4.45;;;;;;;30.17;45.14;100114.31;8284456;28;20118;-63
2023/06/09 16:33:46;;;;;;;5.90;5.07;;;;;;;30.00;46.37;100118.44;8296969;28;20034;-62
2023/06/09 16:37:46;;;;;;;5.67;4.87;;;;;;;29.83;46.29;100121.53;8317896;28;20040;-62
2023/06/09 16:41:47;;;;;;;6.28;4.63;;;;;;;29.80;46.49;100115.66;8319416;28;20284;-62
2023/06/09 16:45:47;;;;;;;5.75;4.63;;;;;;;29.79;47.31;100114.81;8319191;28;20111;-62
2023/06/09 16:49:51;;;;;;;10.45;5.05;;;;;;;29.75;46.60;100124.84;8323061;28;20083;-63
2023/06/09 16:53:51;;;;;;;5.38;4.68;;;;;;;29.61;46.14;100118.06;8324929;28;20562;-62
2023/06/09 16:57:51;;;;;;;6.28;4.53;;;;;;;29.70;46.75;100119.22;8296270;28;20386;-62
2023/06/09 17:01:52;;;;;;;6.13;4.32;;;;;;;29.74;43.78;100117.59;8296811;28;20108;-63
2023/06/09 17:05:52;;;;;;;5.05;4.30;;;;;;;29.79;46.05;100117.59;8291503;28;20510;-63
2023/06/09 17:09:53;;;;;;;7.65;4.28;;;;;;;29.87;45.56;100125.41;8304710;28;20223;-63
2023/06/09 17:13:53;;;;;;;4.43;4.03;;;;;;;29.95;44.55;100119.28;8322359;28;20095;-63
2023/06/09 17:17:54;;;;;;;5.20;4.70;;;;;;;29.91;45.75;100129.31;8324915;28;20280;-63
2023/06/09 17:21:54;;;;;;;6.40;5.18;;;;;;;29.74;48.42;100134.31;8324820;28;20037;-63
2023/06/09 17:25:55;;;;;;;6.30;5.10;;;;;;;29.74;48.79;100136.25;8324773;28;20029;-63
2023/06/09 17:29:55;;;;;;;9.65;5.20;;;;;;;29.67;49.59;100133.72;8339585;28;20048;-63
2023/06/09 17:33:56;;;;;;;9.15;4.95;;;;;;;29.62;49.40;100141.25;8322940;28;20037;-63
2023/06/09 17:37:56;;;;;;;5.57;4.63;;;;;;;29.58;49.46;100146.47;8322861;28;20037;-64
2023/06/09 17:41:57;;;;;;;5.90;4.40;;;;;;;29.56;48.75;100145.94;8304427;28;20038;-63
2023/06/09 17:45:57;;;;;;;7.57;4.78;;;;;;;29.69;48.86;100148.22;8320057;28;20141;-61
2023/06/09 17:49:58;;;;;;;9.75;5.50;;;;;;;29.54;46.94;100156.50;8323184;28;20091;-63
2023/06/09 17:53:58;;;;;;;5.97;4.93;;;;;;;29.25;47.76;100148.88;8320152;28;20783;-63
2023/06/09 17:57:58;;;;;;;6.97;5.22;;;;;;;29.15;46.99;100158.00;8308715;28;20066;-62
2023/06/09 18:02:01;;;;;;;7.82;4.82;;;;;;;28.90;47.03;100159.78;8313415;28;20048;-62
2023/06/09 18:06:02;;;;;;;8.75;5.22;;;;;;;28.63;46.71;100151.50;8321965;28;20077;-62
2023/06/09 18:10:04;;;;;;;6.25;5.00;;;;;;;28.41;47.60;100162.72;8319019;28;20052;-63
2023/06/09 18:14:05;;;;;;;7.55;4.65;;;;;;;28.24;47.21;100161.19;8305145;28;20408;-63
2023/06/09 18:18:06;;;;;;;8.70;5.28;;;;;;;28.13;46.37;100159.38;8322698;28;20033;-62
2023/06/09 18:22:06;;;;;;;6.28;4.68;;;;;;;28.01;47.65;100158.72;8318694;28;20045;-62
2023/06/09 18:26:06;;;;;;;5.78;4.85;;;;;;;27.87;48.58;100161.06;8322307;28;20559;-63
2023/06/09 18:30:08;;;;;;;6.53;4.90;;;;;;;27.75;48.51;100156.75;8323356;28;20041;-63
2023/06/09 18:34:08;;;;;;;7.13;4.55;;;;;;;27.67;48.54;100171.94;8322330;28;20330;-62